sensor_id;sensor_type;location;lat;lon;timestamp;temperature;humidity
22235;DHT22;11286;45.596;5.284;2022-09-03T00:00:14;21.30;43.70
22235;DHT22;11286;45.596;5.284;2022-09-03T00:08:02;21.10;42.90
22235;DHT22;11286;45.596;5.284;2022-09-03T00:10:55;21.20;43.20
22235;DHT22;11286;45.596;5.284;2022-09-03T00:13:41;21.20;48.80
22235;DHT22;11286;45.596;5.284;2022-09-03T00:16:11;21.00;42.10
22235;DHT22;11286;45.596;5.284;2022-09-03T00:18:45;21.10;42.30
22235;DHT22;11286;45.596;5.284;2022-09-03T00:21:40;21.00;44.80
22235;DHT22;11286;45.596;5.284;2022-09-03T00:24:11;21.10;46.30
22235;DHT22;11286;45.596;5.284;2022-09-03T00:26:39;21.10;39.30
22235;DHT22;11286;45.596;5.284;2022-09-03T00:29:20;21.10;46.40
22235;DHT22;11286;45.596;5.284;2022-09-03T00:31:53;21.10;42.60
22235;DHT22;11286;45.596;5.284;2022-09-03T00:34:29;21.00;44.30
22235;DHT22;11286;45.596;5.284;2022-09-03T00:36:56;20.90;42.00
22235;DHT22;11286;45.596;5.284;2022-09-03T00:39:25;21.10;42.90
22235;DHT22;11286;45.596;5.284;2022-09-03T00:45:56;21.00;43.60
22235;DHT22;11286;45.596;5.284;2022-09-03T00:48:12;20.90;42.40
22235;DHT22;11286;45.596;5.284;2022-09-03T00:53:50;20.80;46.80
22235;DHT22;11286;45.596;5.284;2022-09-03T01:15:16;20.70;47.50
22235;DHT22;11286;45.596;5.284;2022-09-03T01:21:47;20.80;52.90
22235;DHT22;11286;45.596;5.284;2022-09-03T01:24:11;20.80;55.90
22235;DHT22;11286;45.596;5.284;2022-09-03T01:29:42;20.80;59.40
22235;DHT22;11286;45.596;5.284;2022-09-03T01:32:20;20.50;59.30
22235;DHT22;11286;45.596;5.284;2022-09-03T01:37:28;20.70;47.60
22235;DHT22;11286;45.596;5.284;2022-09-03T01:46:09;20.50;45.00
22235;DHT22;11286;45.596;5.284;2022-09-03T01:51:24;20.30;42.40
22235;DHT22;11286;45.596;5.284;2022-09-03T01:54:19;20.40;51.10
22235;DHT22;11286;45.596;5.284;2022-09-03T01:59:32;20.50;53.40
22235;DHT22;11286;45.596;5.284;2022-09-03T02:02:04;20.50;53.90
22235;DHT22;11286;45.596;5.284;2022-09-03T02:04:32;20.50;58.20
22235;DHT22;11286;45.596;5.284;2022-09-03T02:07:00;20.30;50.50
22235;DHT22;11286;45.596;5.284;2022-09-03T02:09:27;20.30;46.50
22235;DHT22;11286;45.596;5.284;2022-09-03T02:12:14;20.40;43.40
22235;DHT22;11286;45.596;5.284;2022-09-03T02:14:40;20.70;45.90
22235;DHT22;11286;45.596;5.284;2022-09-03T02:17:07;20.40;49.70
22235;DHT22;11286;45.596;5.284;2022-09-03T02:19:33;20.20;46.70
22235;DHT22;11286;45.596;5.284;2022-09-03T02:22:02;20.10;48.50
22235;DHT22;11286;45.596;5.284;2022-09-03T02:24:28;20.00;51.50
22235;DHT22;11286;45.596;5.284;2022-09-03T02:26:55;19.90;41.50
22235;DHT22;11286;45.596;5.284;2022-09-03T02:29:21;20.00;45.00
22235;DHT22;11286;45.596;5.284;2022-09-03T02:31:47;20.00;43.00
22235;DHT22;11286;45.596;5.284;2022-09-03T02:34:13;20.00;42.50
22235;DHT22;11286;45.596;5.284;2022-09-03T02:36:44;20.10;47.80
22235;DHT22;11286;45.596;5.284;2022-09-03T02:39:11;20.10;45.20
22235;DHT22;11286;45.596;5.284;2022-09-03T02:41:37;20.10;47.10
22235;DHT22;11286;45.596;5.284;2022-09-03T02:46:49;19.90;57.30
22235;DHT22;11286;45.596;5.284;2022-09-03T02:49:16;20.00;56.70
22235;DHT22;11286;45.596;5.284;2022-09-03T02:51:42;20.00;56.10
22235;DHT22;11286;45.596;5.284;2022-09-03T02:54:09;20.10;66.90
22235;DHT22;11286;45.596;5.284;2022-09-03T02:56:35;20.10;59.80
22235;DHT22;11286;45.596;5.284;2022-09-03T02:59:06;20.00;56.10
22235;DHT22;11286;45.596;5.284;2022-09-03T03:01:32;20.00;58.80
22235;DHT22;11286;45.596;5.284;2022-09-03T03:03:58;19.90;60.40
22235;DHT22;11286;45.596;5.284;2022-09-03T03:06:24;19.90;53.60
22235;DHT22;11286;45.596;5.284;2022-09-03T03:08:50;20.00;72.60
22235;DHT22;11286;45.596;5.284;2022-09-03T03:11:17;20.00;57.40
22235;DHT22;11286;45.596;5.284;2022-09-03T03:13:46;20.00;58.10
22235;DHT22;11286;45.596;5.284;2022-09-03T03:16:13;20.10;46.40
22235;DHT22;11286;45.596;5.284;2022-09-03T03:18:40;20.10;54.00
22235;DHT22;11286;45.596;5.284;2022-09-03T03:21:10;20.10;54.30
22235;DHT22;11286;45.596;5.284;2022-09-03T03:23:36;20.00;57.20
22235;DHT22;11286;45.596;5.284;2022-09-03T03:26:08;19.90;69.50
22235;DHT22;11286;45.596;5.284;2022-09-03T03:28:35;20.00;53.70
22235;DHT22;11286;45.596;5.284;2022-09-03T03:31:12;19.90;69.10
22235;DHT22;11286;45.596;5.284;2022-09-03T03:33:39;19.90;68.00
22235;DHT22;11286;45.596;5.284;2022-09-03T03:36:10;19.80;55.70
22235;DHT22;11286;45.596;5.284;2022-09-03T03:38:36;19.80;59.90
22235;DHT22;11286;45.596;5.284;2022-09-03T03:41:17;19.90;60.00
22235;DHT22;11286;45.596;5.284;2022-09-03T03:43:43;19.80;68.00
22235;DHT22;11286;45.596;5.284;2022-09-03T03:46:10;19.90;63.10
22235;DHT22;11286;45.596;5.284;2022-09-03T03:48:36;19.80;52.70
22235;DHT22;11286;45.596;5.284;2022-09-03T03:51:05;19.90;59.10
22235;DHT22;11286;45.596;5.284;2022-09-03T03:53:32;19.90;56.60
22235;DHT22;11286;45.596;5.284;2022-09-03T03:56:00;19.90;53.70
22235;DHT22;11286;45.596;5.284;2022-09-03T03:58:31;19.90;49.10
22235;DHT22;11286;45.596;5.284;2022-09-03T04:01:05;19.90;52.80
22235;DHT22;11286;45.596;5.284;2022-09-03T04:03:32;19.80;51.70
22235;DHT22;11286;45.596;5.284;2022-09-03T04:05:58;19.80;54.70
22235;DHT22;11286;45.596;5.284;2022-09-03T04:08:26;19.70;53.30
22235;DHT22;11286;45.596;5.284;2022-09-03T04:10:52;19.70;53.30
22235;DHT22;11286;45.596;5.284;2022-09-03T04:13:18;19.60;51.90
22235;DHT22;11286;45.596;5.284;2022-09-03T04:15:44;19.60;53.00
22235;DHT22;11286;45.596;5.284;2022-09-03T04:18:10;19.60;52.50
22235;DHT22;11286;45.596;5.284;2022-09-03T04:20:36;19.60;63.70
22235;DHT22;11286;45.596;5.284;2022-09-03T04:23:02;19.60;54.50
22235;DHT22;11286;45.596;5.284;2022-09-03T04:25:28;19.60;54.30
22235;DHT22;11286;45.596;5.284;2022-09-03T04:27:54;19.80;57.50
22235;DHT22;11286;45.596;5.284;2022-09-03T04:30:20;19.80;53.20
22235;DHT22;11286;45.596;5.284;2022-09-03T04:32:49;19.90;53.60
22235;DHT22;11286;45.596;5.284;2022-09-03T04:35:21;19.90;67.50
22235;DHT22;11286;45.596;5.284;2022-09-03T04:37:47;19.90;53.80
22235;DHT22;11286;45.596;5.284;2022-09-03T04:40:13;19.90;48.50
22235;DHT22;11286;45.596;5.284;2022-09-03T04:42:38;19.80;55.30
22235;DHT22;11286;45.596;5.284;2022-09-03T04:45:05;19.70;56.70
22235;DHT22;11286;45.596;5.284;2022-09-03T04:47:30;19.70;56.70
22235;DHT22;11286;45.596;5.284;2022-09-03T04:49:56;19.80;53.80
22235;DHT22;11286;45.596;5.284;2022-09-03T04:52:22;19.70;55.90
22235;DHT22;11286;45.596;5.284;2022-09-03T04:54:49;19.70;56.10
22235;DHT22;11286;45.596;5.284;2022-09-03T04:57:14;19.70;59.40
22235;DHT22;11286;45.596;5.284;2022-09-03T04:59:40;19.70;56.60
22235;DHT22;11286;45.596;5.284;2022-09-03T05:02:07;19.70;60.40
22235;DHT22;11286;45.596;5.284;2022-09-03T05:04:34;19.60;59.80
22235;DHT22;11286;45.596;5.284;2022-09-03T05:06:59;19.50;60.90
22235;DHT22;11286;45.596;5.284;2022-09-03T05:09:25;19.50;55.70
22235;DHT22;11286;45.596;5.284;2022-09-03T05:11:51;19.50;57.90
22235;DHT22;11286;45.596;5.284;2022-09-03T05:14:16;19.50;53.40
22235;DHT22;11286;45.596;5.284;2022-09-03T05:16:42;19.40;56.50
22235;DHT22;11286;45.596;5.284;2022-09-03T05:19:08;19.40;55.40
22235;DHT22;11286;45.596;5.284;2022-09-03T05:21:34;19.60;56.10
22235;DHT22;11286;45.596;5.284;2022-09-03T05:24:01;19.60;60.90
22235;DHT22;11286;45.596;5.284;2022-09-03T05:26:29;19.60;53.90
22235;DHT22;11286;45.596;5.284;2022-09-03T05:28:57;19.60;60.10
22235;DHT22;11286;45.596;5.284;2022-09-03T05:31:25;19.70;59.40
22235;DHT22;11286;45.596;5.284;2022-09-03T05:33:57;19.70;58.30
22235;DHT22;11286;45.596;5.284;2022-09-03T05:36:26;19.80;58.00
22235;DHT22;11286;45.596;5.284;2022-09-03T05:38:52;19.80;60.20
22235;DHT22;11286;45.596;5.284;2022-09-03T05:41:21;19.90;58.70
22235;DHT22;11286;45.596;5.284;2022-09-03T05:43:49;20.00;60.00
22235;DHT22;11286;45.596;5.284;2022-09-03T05:46:21;20.00;59.50
22235;DHT22;11286;45.596;5.284;2022-09-03T05:48:51;20.10;59.20
22235;DHT22;11286;45.596;5.284;2022-09-03T05:51:17;20.10;56.10
22235;DHT22;11286;45.596;5.284;2022-09-03T05:53:44;20.00;73.20
22235;DHT22;11286;45.596;5.284;2022-09-03T05:56:13;19.90;61.30
22235;DHT22;11286;45.596;5.284;2022-09-03T05:58:42;19.90;75.10
22235;DHT22;11286;45.596;5.284;2022-09-03T06:03:43;20.00;63.70
22235;DHT22;11286;45.596;5.284;2022-09-03T06:06:09;20.00;61.00
22235;DHT22;11286;45.596;5.284;2022-09-03T06:08:35;20.10;59.90
22235;DHT22;11286;45.596;5.284;2022-09-03T06:11:04;20.20;56.40
22235;DHT22;11286;45.596;5.284;2022-09-03T06:13:31;20.30;62.70
22235;DHT22;11286;45.596;5.284;2022-09-03T06:16:02;20.40;59.30
22235;DHT22;11286;45.596;5.284;2022-09-03T06:18:29;20.50;59.50
22235;DHT22;11286;45.596;5.284;2022-09-03T06:20:55;20.60;57.80
22235;DHT22;11286;45.596;5.284;2022-09-03T06:23:22;20.70;61.20
22235;DHT22;11286;45.596;5.284;2022-09-03T06:25:48;20.80;56.30
22235;DHT22;11286;45.596;5.284;2022-09-03T06:28:24;20.90;59.70
22235;DHT22;11286;45.596;5.284;2022-09-03T06:30:51;21.00;54.20
22235;DHT22;11286;45.596;5.284;2022-09-03T06:33:17;21.10;59.50
22235;DHT22;11286;45.596;5.284;2022-09-03T06:35:43;21.20;54.80
22235;DHT22;11286;45.596;5.284;2022-09-03T06:38:09;21.40;52.80
22235;DHT22;11286;45.596;5.284;2022-09-03T06:40:37;21.50;56.20
22235;DHT22;11286;45.596;5.284;2022-09-03T06:43:02;21.50;51.20
22235;DHT22;11286;45.596;5.284;2022-09-03T06:45:29;21.60;50.80
22235;DHT22;11286;45.596;5.284;2022-09-03T06:47:55;21.70;57.40
22235;DHT22;11286;45.596;5.284;2022-09-03T06:50:22;21.70;54.80
22235;DHT22;11286;45.596;5.284;2022-09-03T06:52:51;21.90;59.90
22235;DHT22;11286;45.596;5.284;2022-09-03T06:55:20;21.90;74.20
22235;DHT22;11286;45.596;5.284;2022-09-03T06:57:46;22.00;59.20
22235;DHT22;11286;45.596;5.284;2022-09-03T07:00:12;22.10;59.30
22235;DHT22;11286;45.596;5.284;2022-09-03T07:02:38;22.10;61.00
22235;DHT22;11286;45.596;5.284;2022-09-03T07:05:06;22.10;59.40
22235;DHT22;11286;45.596;5.284;2022-09-03T07:07:32;22.30;61.00
22235;DHT22;11286;45.596;5.284;2022-09-03T07:09:57;22.50;56.60
22235;DHT22;11286;45.596;5.284;2022-09-03T07:12:23;22.60;52.00
22235;DHT22;11286;45.596;5.284;2022-09-03T07:14:49;22.60;56.60
22235;DHT22;11286;45.596;5.284;2022-09-03T07:17:15;22.80;57.80
22235;DHT22;11286;45.596;5.284;2022-09-03T07:19:41;22.90;55.60
22235;DHT22;11286;45.596;5.284;2022-09-03T07:22:06;22.90;57.90
22235;DHT22;11286;45.596;5.284;2022-09-03T07:24:34;22.80;56.50
22235;DHT22;11286;45.596;5.284;2022-09-03T07:27:02;22.80;57.70
22235;DHT22;11286;45.596;5.284;2022-09-03T07:29:27;22.90;57.50
22235;DHT22;11286;45.596;5.284;2022-09-03T07:31:53;22.80;59.90
22235;DHT22;11286;45.596;5.284;2022-09-03T07:34:20;22.90;55.10
22235;DHT22;11286;45.596;5.284;2022-09-03T07:36:48;23.00;65.80
22235;DHT22;11286;45.596;5.284;2022-09-03T07:39:16;23.10;57.90
22235;DHT22;11286;45.596;5.284;2022-09-03T07:41:42;23.20;60.80
22235;DHT22;11286;45.596;5.284;2022-09-03T07:44:10;23.10;59.00
22235;DHT22;11286;45.596;5.284;2022-09-03T07:46:37;23.20;61.50
22235;DHT22;11286;45.596;5.284;2022-09-03T07:49:03;23.40;58.40
22235;DHT22;11286;45.596;5.284;2022-09-03T07:51:35;23.60;60.20
22235;DHT22;11286;45.596;5.284;2022-09-03T07:54:06;23.70;67.60
22235;DHT22;11286;45.596;5.284;2022-09-03T07:56:34;23.80;64.40
22235;DHT22;11286;45.596;5.284;2022-09-03T07:59:00;23.80;61.10
22235;DHT22;11286;45.596;5.284;2022-09-03T08:01:28;23.60;60.30
22235;DHT22;11286;45.596;5.284;2022-09-03T08:03:55;23.50;62.90
22235;DHT22;11286;45.596;5.284;2022-09-03T08:06:23;23.70;58.60
22235;DHT22;11286;45.596;5.284;2022-09-03T08:08:57;23.90;68.20
22235;DHT22;11286;45.596;5.284;2022-09-03T08:11:25;24.00;64.80
22235;DHT22;11286;45.596;5.284;2022-09-03T08:13:55;24.20;61.50
22235;DHT22;11286;45.596;5.284;2022-09-03T08:16:26;24.30;61.80
22235;DHT22;11286;45.596;5.284;2022-09-03T08:18:53;24.30;77.50
22235;DHT22;11286;45.596;5.284;2022-09-03T08:21:19;24.40;57.90
22235;DHT22;11286;45.596;5.284;2022-09-03T08:23:46;24.30;54.80
22235;DHT22;11286;45.596;5.284;2022-09-03T08:26:14;24.40;64.40
22235;DHT22;11286;45.596;5.284;2022-09-03T08:28:40;24.70;55.90
22235;DHT22;11286;45.596;5.284;2022-09-03T08:33:41;25.00;55.50
22235;DHT22;11286;45.596;5.284;2022-09-03T08:36:12;24.90;59.60
22235;DHT22;11286;45.596;5.284;2022-09-03T08:38:39;25.00;58.60
22235;DHT22;11286;45.596;5.284;2022-09-03T08:41:13;25.10;79.50
22235;DHT22;11286;45.596;5.284;2022-09-03T08:43:58;25.30;63.10
22235;DHT22;11286;45.596;5.284;2022-09-03T08:46:56;25.10;77.60
22235;DHT22;11286;45.596;5.284;2022-09-03T08:49:30;25.50;65.30
22235;DHT22;11286;45.596;5.284;2022-09-03T08:52:01;25.40;62.30
22235;DHT22;11286;45.596;5.284;2022-09-03T08:54:31;25.40;57.20
22235;DHT22;11286;45.596;5.284;2022-09-03T08:57:00;25.30;59.50
22235;DHT22;11286;45.596;5.284;2022-09-03T08:59:28;25.40;62.20
22235;DHT22;11286;45.596;5.284;2022-09-03T09:04:41;25.40;52.40
22235;DHT22;11286;45.596;5.284;2022-09-03T09:07:18;25.50;77.10
22235;DHT22;11286;45.596;5.284;2022-09-03T09:10:15;26.40;72.00
22235;DHT22;11286;45.596;5.284;2022-09-03T09:12:52;26.70;73.90
22235;DHT22;11286;45.596;5.284;2022-09-03T09:23:04;26.50;60.20
22235;DHT22;11286;45.596;5.284;2022-09-03T09:25:31;26.60;63.60
22235;DHT22;11286;45.596;5.284;2022-09-03T09:28:22;27.10;66.30
22235;DHT22;11286;45.596;5.284;2022-09-03T09:30:49;27.00;73.70
22235;DHT22;11286;45.596;5.284;2022-09-03T09:33:17;26.70;55.50
22235;DHT22;11286;45.596;5.284;2022-09-03T09:35:44;26.70;57.00
22235;DHT22;11286;45.596;5.284;2022-09-03T09:38:10;26.90;58.90
22235;DHT22;11286;45.596;5.284;2022-09-03T09:40:42;27.20;54.50
22235;DHT22;11286;45.596;5.284;2022-09-03T09:43:16;27.30;56.40
22235;DHT22;11286;45.596;5.284;2022-09-03T09:45:45;27.60;56.10
22235;DHT22;11286;45.596;5.284;2022-09-03T09:48:31;27.70;59.80
22235;DHT22;11286;45.596;5.284;2022-09-03T09:53:30;28.70;59.10
22235;DHT22;11286;45.596;5.284;2022-09-03T09:55:58;30.20;62.60
22235;DHT22;11286;45.596;5.284;2022-09-03T09:58:26;35.50;70.20
22235;DHT22;11286;45.596;5.284;2022-09-03T10:00:56;36.60;94.40
22235;DHT22;11286;45.596;5.284;2022-09-03T10:03:24;34.30;90.70
22235;DHT22;11286;45.596;5.284;2022-09-03T10:06:21;31.30;80.20
22235;DHT22;11286;45.596;5.284;2022-09-03T10:09:17;32.50;93.00
22235;DHT22;11286;45.596;5.284;2022-09-03T10:11:46;39.70;93.20
22235;DHT22;11286;45.596;5.284;2022-09-03T10:14:37;34.10;87.60
22235;DHT22;11286;45.596;5.284;2022-09-03T10:17:26;34.90;90.50
22235;DHT22;11286;45.596;5.284;2022-09-03T10:22:47;30.80;74.60
22235;DHT22;11286;45.596;5.284;2022-09-03T10:25:15;30.60;53.00
22235;DHT22;11286;45.596;5.284;2022-09-03T10:27:42;29.10;76.20
22235;DHT22;11286;45.596;5.284;2022-09-03T10:30:11;28.80;40.00
22235;DHT22;11286;45.596;5.284;2022-09-03T10:35:31;34.40;83.10
22235;DHT22;11286;45.596;5.284;2022-09-03T10:38:29;40.50;87.80
22235;DHT22;11286;45.596;5.284;2022-09-03T10:41:37;44.10;86.30
22235;DHT22;11286;45.596;5.284;2022-09-03T10:53:01;36.70;53.60
22235;DHT22;11286;45.596;5.284;2022-09-03T10:55:18;40.30;62.60
22235;DHT22;11286;45.596;5.284;2022-09-03T10:57:50;39.40;64.40
22235;DHT22;11286;45.596;5.284;2022-09-03T11:00:18;35.70;59.50
22235;DHT22;11286;45.596;5.284;2022-09-03T11:05:36;40.60;52.30
22235;DHT22;11286;45.596;5.284;2022-09-03T11:08:19;35.80;47.70
22235;DHT22;11286;45.596;5.284;2022-09-03T11:10:50;36.00;48.70
22235;DHT22;11286;45.596;5.284;2022-09-03T11:13:25;34.00;50.40
22235;DHT22;11286;45.596;5.284;2022-09-03T11:15:55;39.60;53.10
22235;DHT22;11286;45.596;5.284;2022-09-03T11:21:13;40.60;53.80
22235;DHT22;11286;45.596;5.284;2022-09-03T11:23:45;42.10;50.40
22235;DHT22;11286;45.596;5.284;2022-09-03T11:26:16;45.00;52.40
22235;DHT22;11286;45.596;5.284;2022-09-03T11:29:03;46.10;50.80
22235;DHT22;11286;45.596;5.284;2022-09-03T11:34:07;43.00;49.90
22235;DHT22;11286;45.596;5.284;2022-09-03T11:36:36;39.40;49.40
22235;DHT22;11286;45.596;5.284;2022-09-03T11:39:14;36.50;49.70
22235;DHT22;11286;45.596;5.284;2022-09-03T11:41:43;34.30;50.50
22235;DHT22;11286;45.596;5.284;2022-09-03T11:44:21;33.30;41.40
22235;DHT22;11286;45.596;5.284;2022-09-03T11:46:57;35.90;40.20
22235;DHT22;11286;45.596;5.284;2022-09-03T11:49:29;35.30;49.90
22235;DHT22;11286;45.596;5.284;2022-09-03T11:52:00;34.70;35.60
22235;DHT22;11286;45.596;5.284;2022-09-03T11:54:26;39.10;45.30
22235;DHT22;11286;45.596;5.284;2022-09-03T11:57:13;38.90;41.50
22235;DHT22;11286;45.596;5.284;2022-09-03T11:59:43;35.10;39.60
22235;DHT22;11286;45.596;5.284;2022-09-03T12:02:28;34.00;33.30
22235;DHT22;11286;45.596;5.284;2022-09-03T12:05:20;36.90;47.20
22235;DHT22;11286;45.596;5.284;2022-09-03T12:10:56;38.50;49.20
22235;DHT22;11286;45.596;5.284;2022-09-03T12:16:47;35.30;44.10
22235;DHT22;11286;45.596;5.284;2022-09-03T12:20:00;34.20;48.40
22235;DHT22;11286;45.596;5.284;2022-09-03T12:22:28;34.10;43.10
22235;DHT22;11286;45.596;5.284;2022-09-03T12:24:54;33.80;41.80
22235;DHT22;11286;45.596;5.284;2022-09-03T12:27:22;33.10;35.60
22235;DHT22;11286;45.596;5.284;2022-09-03T12:29:59;32.70;34.50
22235;DHT22;11286;45.596;5.284;2022-09-03T12:32:30;32.00;35.00
22235;DHT22;11286;45.596;5.284;2022-09-03T12:34:57;31.60;38.80
22235;DHT22;11286;45.596;5.284;2022-09-03T12:37:25;31.70;41.50
22235;DHT22;11286;45.596;5.284;2022-09-03T12:39:53;32.30;39.00
22235;DHT22;11286;45.596;5.284;2022-09-03T12:42:23;32.10;42.50
22235;DHT22;11286;45.596;5.284;2022-09-03T12:44:50;32.20;29.70
22235;DHT22;11286;45.596;5.284;2022-09-03T12:47:18;31.90;30.60
22235;DHT22;11286;45.596;5.284;2022-09-03T12:49:46;30.80;37.30
22235;DHT22;11286;45.596;5.284;2022-09-03T12:57:52;30.90;39.40
22235;DHT22;11286;45.596;5.284;2022-09-03T13:00:20;30.70;39.50
22235;DHT22;11286;45.596;5.284;2022-09-03T13:05:27;29.20;32.20
22235;DHT22;11286;45.596;5.284;2022-09-03T13:07:57;29.10;35.60
22235;DHT22;11286;45.596;5.284;2022-09-03T13:10:37;28.40;35.00
22235;DHT22;11286;45.596;5.284;2022-09-03T13:13:29;28.20;34.20
22235;DHT22;11286;45.596;5.284;2022-09-03T13:21:40;28.50;43.30
22235;DHT22;11286;45.596;5.284;2022-09-03T13:30:00;28.20;39.60
22235;DHT22;11286;45.596;5.284;2022-09-03T13:49:57;30.10;30.00
22235;DHT22;11286;45.596;5.284;2022-09-03T13:52:52;30.50;41.30
22235;DHT22;11286;45.596;5.284;2022-09-03T13:55:40;29.80;41.60
22235;DHT22;11286;45.596;5.284;2022-09-03T14:03:44;37.20;47.90
22235;DHT22;11286;45.596;5.284;2022-09-03T14:22:28;32.60;49.40
22235;DHT22;11286;45.596;5.284;2022-09-03T14:25:02;30.70;51.30
22235;DHT22;11286;45.596;5.284;2022-09-03T14:27:31;29.70;50.00
22235;DHT22;11286;45.596;5.284;2022-09-03T14:29:59;29.50;43.00
22235;DHT22;11286;45.596;5.284;2022-09-03T14:41:05;29.70;50.50
22235;DHT22;11286;45.596;5.284;2022-09-03T15:00:19;29.30;47.40
22235;DHT22;11286;45.596;5.284;2022-09-03T15:11:02;32.30;48.80
22235;DHT22;11286;45.596;5.284;2022-09-03T15:13:32;32.20;44.70
22235;DHT22;11286;45.596;5.284;2022-09-03T15:16:12;31.40;46.70
22235;DHT22;11286;45.596;5.284;2022-09-03T15:21:23;30.40;43.70
22235;DHT22;11286;45.596;5.284;2022-09-03T15:29:48;31.90;43.70
22235;DHT22;11286;45.596;5.284;2022-09-03T15:37:24;32.30;47.60
22235;DHT22;11286;45.596;5.284;2022-09-03T15:40:28;31.50;46.00
22235;DHT22;11286;45.596;5.284;2022-09-03T15:43:20;30.20;47.70
22235;DHT22;11286;45.596;5.284;2022-09-03T15:46:02;29.50;54.30
22235;DHT22;11286;45.596;5.284;2022-09-03T15:48:47;29.50;44.90
22235;DHT22;11286;45.596;5.284;2022-09-03T15:59:41;28.80;44.80
22235;DHT22;11286;45.596;5.284;2022-09-03T16:02:20;28.60;41.20
22235;DHT22;11286;45.596;5.284;2022-09-03T16:08:03;27.70;37.50
22235;DHT22;11286;45.596;5.284;2022-09-03T16:13:43;27.60;38.40
22235;DHT22;11286;45.596;5.284;2022-09-03T16:16:16;27.70;40.10
22235;DHT22;11286;45.596;5.284;2022-09-03T16:19:09;27.60;38.90
22235;DHT22;11286;45.596;5.284;2022-09-03T16:24:32;27.20;40.70
22235;DHT22;11286;45.596;5.284;2022-09-03T16:28:12;27.00;38.90
22235;DHT22;11286;45.596;5.284;2022-09-03T16:39:02;27.00;47.50
22235;DHT22;11286;45.596;5.284;2022-09-03T16:45:02;27.00;43.80
22235;DHT22;11286;45.596;5.284;2022-09-03T16:52:59;26.50;32.90
22235;DHT22;11286;45.596;5.284;2022-09-03T16:58:05;26.40;40.00
22235;DHT22;11286;45.596;5.284;2022-09-03T17:09:06;26.00;57.60
22235;DHT22;11286;45.596;5.284;2022-09-03T17:26:01;25.80;32.00
22235;DHT22;11286;45.596;5.284;2022-09-03T17:42:39;25.40;26.90
22235;DHT22;11286;45.596;5.284;2022-09-03T17:50:52;25.30;24.80
22235;DHT22;11286;45.596;5.284;2022-09-03T17:53:33;25.30;34.70
22235;DHT22;11286;45.596;5.284;2022-09-03T17:56:07;25.20;27.90
22235;DHT22;11286;45.596;5.284;2022-09-03T17:58:48;25.10;25.90
22235;DHT22;11286;45.596;5.284;2022-09-03T18:01:23;25.10;26.90
22235;DHT22;11286;45.596;5.284;2022-09-03T18:03:56;25.10;29.50
22235;DHT22;11286;45.596;5.284;2022-09-03T18:06:47;25.00;27.20
22235;DHT22;11286;45.596;5.284;2022-09-03T18:09:26;24.90;28.50
22235;DHT22;11286;45.596;5.284;2022-09-03T18:14:49;24.80;25.00
22235;DHT22;11286;45.596;5.284;2022-09-03T18:17:30;24.70;25.30
22235;DHT22;11286;45.596;5.284;2022-09-03T18:20:10;24.50;27.00
22235;DHT22;11286;45.596;5.284;2022-09-03T18:23:25;24.60;27.60
22235;DHT22;11286;45.596;5.284;2022-09-03T18:26:15;24.50;24.30
22235;DHT22;11286;45.596;5.284;2022-09-03T18:29:11;24.50;26.80
22235;DHT22;11286;45.596;5.284;2022-09-03T18:31:59;24.40;32.00
22235;DHT22;11286;45.596;5.284;2022-09-03T18:34:45;24.30;25.00
22235;DHT22;11286;45.596;5.284;2022-09-03T18:37:30;24.20;23.80
22235;DHT22;11286;45.596;5.284;2022-09-03T18:40:24;24.10;22.20
22235;DHT22;11286;45.596;5.284;2022-09-03T18:46:24;23.60;25.80
22235;DHT22;11286;45.596;5.284;2022-09-03T18:49:29;23.40;23.60
22235;DHT22;11286;45.596;5.284;2022-09-03T18:52:26;23.50;27.00
22235;DHT22;11286;45.596;5.284;2022-09-03T18:58:30;23.40;25.20
22235;DHT22;11286;45.596;5.284;2022-09-03T19:01:35;23.30;28.90
22235;DHT22;11286;45.596;5.284;2022-09-03T19:10:05;23.30;30.60
22235;DHT22;11286;45.596;5.284;2022-09-03T19:13:11;23.30;36.70
22235;DHT22;11286;45.596;5.284;2022-09-03T19:16:09;23.40;32.80
22235;DHT22;11286;45.596;5.284;2022-09-03T19:21:53;23.50;27.80
22235;DHT22;11286;45.596;5.284;2022-09-03T19:24:38;23.50;25.30
22235;DHT22;11286;45.596;5.284;2022-09-03T19:30:46;23.30;26.50
22235;DHT22;11286;45.596;5.284;2022-09-03T19:33:38;23.30;27.40
22235;DHT22;11286;45.596;5.284;2022-09-03T19:42:57;23.30;30.10
22235;DHT22;11286;45.596;5.284;2022-09-03T19:54:33;23.40;31.20
22235;DHT22;11286;45.596;5.284;2022-09-03T19:57:19;23.40;31.50
22235;DHT22;11286;45.596;5.284;2022-09-03T20:00:04;23.40;30.90
22235;DHT22;11286;45.596;5.284;2022-09-03T20:02:49;23.50;28.50
22235;DHT22;11286;45.596;5.284;2022-09-03T20:05:34;23.30;25.20
22235;DHT22;11286;45.596;5.284;2022-09-03T20:08:21;23.00;34.00
22235;DHT22;11286;45.596;5.284;2022-09-03T20:11:08;22.80;24.80
22235;DHT22;11286;45.596;5.284;2022-09-03T20:13:38;22.80;25.20
22235;DHT22;11286;45.596;5.284;2022-09-03T20:16:34;22.80;29.00
22235;DHT22;11286;45.596;5.284;2022-09-03T20:21:45;22.70;33.70
22235;DHT22;11286;45.596;5.284;2022-09-03T20:24:35;22.80;25.20
22235;DHT22;11286;45.596;5.284;2022-09-03T20:30:17;22.40;29.60
22235;DHT22;11286;45.596;5.284;2022-09-03T20:33:30;22.00;29.70
22235;DHT22;11286;45.596;5.284;2022-09-03T20:36:00;22.10;29.00
22235;DHT22;11286;45.596;5.284;2022-09-03T20:41:13;22.40;28.80
22235;DHT22;11286;45.596;5.284;2022-09-03T20:47:23;22.20;28.80
22235;DHT22;11286;45.596;5.284;2022-09-03T20:52:03;22.10;30.60
22235;DHT22;11286;45.596;5.284;2022-09-03T20:54:41;22.20;46.90
22235;DHT22;11286;45.596;5.284;2022-09-03T20:57:27;22.10;65.40
22235;DHT22;11286;45.596;5.284;2022-09-03T21:00:01;21.90;56.50
22235;DHT22;11286;45.596;5.284;2022-09-03T21:05:28;22.10;59.70
22235;DHT22;11286;45.596;5.284;2022-09-03T21:08:23;22.00;59.20
22235;DHT22;11286;45.596;5.284;2022-09-03T21:11:04;21.80;31.90
22235;DHT22;11286;45.596;5.284;2022-09-03T21:21:49;21.60;33.20
22235;DHT22;11286;45.596;5.284;2022-09-03T21:24:48;21.80;27.60
22235;DHT22;11286;45.596;5.284;2022-09-03T21:27:25;21.90;35.70
22235;DHT22;11286;45.596;5.284;2022-09-03T21:32:49;22.00;31.50
22235;DHT22;11286;45.596;5.284;2022-09-03T21:35:22;21.90;36.80
22235;DHT22;11286;45.596;5.284;2022-09-03T21:38:07;22.00;32.60
22235;DHT22;11286;45.596;5.284;2022-09-03T21:40:36;21.90;33.80
22235;DHT22;11286;45.596;5.284;2022-09-03T21:46:08;21.70;33.50
22235;DHT22;11286;45.596;5.284;2022-09-03T21:48:47;21.40;30.90
22235;DHT22;11286;45.596;5.284;2022-09-03T21:51:21;21.50;31.90
22235;DHT22;11286;45.596;5.284;2022-09-03T21:56:49;21.70;32.20
22235;DHT22;11286;45.596;5.284;2022-09-03T21:59:53;21.60;31.80
22235;DHT22;11286;45.596;5.284;2022-09-03T22:02:27;21.50;36.00
22235;DHT22;11286;45.596;5.284;2022-09-03T22:04:54;21.60;30.10
22235;DHT22;11286;45.596;5.284;2022-09-03T22:15:01;21.60;38.40